Providence, Rhode Island
Traffic Map
Current Weather Conditions
Providence, Rhode Island
Broken Clouds
Broken Clouds
63°
Feels Like: 63°
Wind Chill: 63° Ceiling: 13000
Heat Index: 63° Visibility: 10mi
Dew Point: 54° Wind: 8mph
Humidity: 72% Direction: 160° (SSE)
Pressure: 29.89in Gusts: 0mph
Raw Report DataKPVD 211951Z 16007KT 10SM FEW018 FEW049 SCT085 BKN130 17/12 A2989 RMK AO2 SLP122 T01720122
Traffic Incident Summary
Active as of:
Severity:
Category:
InformationThere was an issue retrieving the traffic information for this location. Please try a different location or try again shortly.
Advertisements
Track Severe Weather on mobile